createdAt,value
2018-10-03T00:08:26.003Z,99.99
2018-10-03T00:19:24.460Z,99.99
2018-10-03T00:30:27.130Z,99.99
2018-10-03T00:41:12.327Z,99.99
2018-10-03T00:52:13.657Z,99.99
2018-10-03T01:03:13.263Z,99.99
2018-10-03T01:14:15.296Z,99.99
2018-10-03T01:25:17.384Z,99.99
2018-10-03T01:36:19.716Z,99.99
2018-10-03T01:47:20.366Z,99.99
2018-10-03T01:58:20.815Z,99.99
2018-10-03T02:09:20.143Z,99.99
2018-10-03T02:20:21.295Z,99.99
2018-10-03T02:31:19.171Z,99.99
2018-10-03T02:42:20.471Z,99.99
2018-10-03T02:53:17.516Z,99.99
2018-10-03T03:04:19.647Z,99.99
2018-10-03T03:15:20.016Z,99.99
2018-10-03T03:26:18.990Z,99.99
2018-10-03T03:37:21.092Z,99.99
2018-10-03T03:48:20.339Z,99.99
2018-10-03T03:59:16.386Z,99.99
2018-10-03T04:10:18.731Z,99.99
2018-10-03T04:21:20.548Z,99.99
2018-10-03T04:32:23.005Z,99.99
2018-10-03T04:43:20.083Z,99.99
2018-10-03T04:54:20.112Z,99.99
2018-10-03T05:05:19.623Z,99.99
2018-10-03T05:16:18.093Z,99.99
2018-10-03T05:27:18.556Z,99.99
2018-10-03T05:38:21.043Z,99.99
2018-10-03T05:49:21.787Z,99.99
2018-10-03T06:00:22.126Z,99.99
2018-10-03T06:11:21.530Z,99.99
2018-10-03T06:22:17.108Z,99.99
2018-10-03T06:33:17.933Z,99.99
2018-10-03T06:44:19.900Z,99.99
2018-10-03T06:55:17.620Z,99.99
2018-10-03T07:06:16.662Z,99.99
2018-10-03T07:17:13.642Z,99.99
2018-10-03T07:28:10.228Z,99.99
2018-10-03T07:39:09.798Z,99.99
2018-10-03T07:50:07.268Z,99.99
2018-10-03T08:01:07.497Z,99.99
2018-10-03T08:12:07.437Z,99.99
2018-10-03T08:23:02.950Z,99.99
2018-10-03T08:33:50.136Z,99.99
2018-10-03T08:44:50.814Z,99.99
2018-10-03T08:55:48.968Z,99.99
2018-10-03T09:06:49.974Z,99.99
2018-10-03T09:17:48.752Z,99.99
2018-10-03T09:28:50.262Z,99.99
2018-10-03T09:39:49.307Z,99.99
2018-10-03T09:50:49.718Z,99.99
2018-10-03T10:01:50.184Z,99.99
2018-10-03T10:12:45.613Z,99.99
2018-10-03T10:23:43.950Z,99.99
2018-10-03T10:34:44.163Z,99.99
2018-10-03T10:45:45.172Z,99.99
2018-10-03T10:56:44.703Z,99.99
2018-10-03T11:07:45.572Z,99.99
2018-10-03T11:18:44.644Z,99.99
2018-10-03T11:29:39.083Z,99.99
2018-10-03T11:40:38.033Z,99.99
2018-10-03T11:51:35.343Z,99.99
2018-10-03T12:02:35.311Z,97.94
2018-10-03T12:13:34.173Z,99.99
2018-10-03T12:24:34.193Z,96.93
2018-10-03T12:35:30.498Z,98.65
2018-10-03T12:46:22.213Z,99.99
2018-10-03T12:57:11.093Z,97.66
2018-10-03T13:08:07.406Z,87.10
2018-10-03T13:18:57.248Z,91.97
2018-10-03T13:29:55.648Z,84.93
2018-10-03T13:40:55.022Z,85.09
2018-10-03T13:51:52.510Z,86.81
2018-10-03T14:02:46.436Z,91.20
2018-10-03T14:13:26.433Z,93.55
2018-10-03T14:24:19.117Z,93.63
2018-10-03T14:35:11.638Z,95.34
2018-10-03T14:46:02.054Z,99.99
2018-10-03T14:56:56.838Z,99.99
2018-10-03T15:07:52.616Z,99.99
2018-10-03T15:18:48.896Z,99.99
2018-10-03T15:29:38.173Z,99.99
2018-10-03T15:40:32.554Z,99.99
2018-10-03T15:51:27.738Z,99.99
2018-10-03T16:02:25.046Z,99.99
2018-10-03T16:13:21.107Z,99.99
2018-10-03T16:24:19.668Z,99.99
2018-10-03T16:35:19.399Z,99.99
2018-10-03T16:46:11.120Z,99.99
2018-10-03T16:57:04.583Z,99.99
2018-10-03T17:08:03.501Z,99.99
2018-10-03T17:19:02.154Z,99.99
2018-10-03T17:29:59.063Z,99.99
2018-10-03T17:40:59.143Z,99.99
2018-10-03T17:51:59.853Z,99.99
2018-10-03T18:02:58.890Z,99.99
2018-10-03T18:13:57.880Z,99.99
2018-10-03T18:24:55.145Z,99.99
2018-10-03T18:35:54.197Z,99.99
2018-10-03T18:46:55.396Z,99.99
2018-10-03T18:57:56.848Z,99.99
2018-10-03T19:08:55.291Z,99.99
2018-10-03T19:19:56.099Z,99.99
2018-10-03T19:30:54.920Z,99.99
2018-10-03T19:41:45.626Z,99.99
2018-10-03T19:52:45.985Z,99.99
2018-10-03T20:03:38.357Z,99.99
2018-10-03T20:14:34.118Z,99.99
2018-10-03T20:25:33.268Z,99.99
2018-10-03T20:36:32.329Z,99.99
2018-10-03T20:47:31.879Z,99.99
2018-10-03T20:58:27.876Z,99.99
2018-10-03T21:09:29.590Z,99.99
2018-10-03T21:20:28.671Z,99.99
2018-10-03T21:31:31.102Z,99.99
2018-10-03T21:42:33.253Z,99.99
2018-10-03T21:53:36.648Z,99.99
2018-10-03T22:04:47.027Z,99.99
2018-10-03T22:15:49.865Z,99.99
2018-10-03T22:26:48.945Z,99.99
2018-10-03T22:37:47.899Z,99.99
2018-10-03T22:48:48.591Z,99.99
2018-10-03T22:59:52.425Z,99.99
2018-10-03T23:10:52.403Z,99.99
2018-10-03T23:21:52.734Z,99.99
2018-10-03T23:32:52.390Z,99.99
2018-10-03T23:43:51.874Z,99.99
2018-10-03T23:54:53.111Z,99.99
